»·PEaware :: N690B KSNA-KONT

N690B :: KSNA-KONT

FLIGHT INFORMATION

Flight Status: Arrived
Operator: Privately registered:
United States
More flights under this callsign
Pilot: Kaloso N. (23070)
Aircraft: BEECH AIRCRAFT BARON
(BE58)
More flights by this aircraft type
Origin: KSNA John Wayne-Orange Co
United States
Destination: KONT Ontario Intl
United States
More flights between these airports :: More routes between these airports
Route: ELB COREL PDZ
File this flight plan on PilotEdge
Remarks: NONE
Altitude:
(Current/Filed)
5,000ft
Speed:
(Current/Filed)
295kts
Departed: 05-Jan-20 06:53 PM
Arrived: 05-Jan-20 07:17 PM
Distance/Time
Traveled:
26nm/0:24
Distance/Time
To Go:
Arrived

Flight Plot

Page will automatically refresh every two minutes.

Flight plan parsing failed; only flown route is shown


Map Options




Map Legend


Flown Route
Filed Route
Departure Airport
Arrival Airport
Navaid (VOR, NDB)
Fix

Horizontal Profiles

Position Reports

Time Latitude Longitude Heading Altitude Ground
Speed
05-Jan-20 17:57 33.673776 -117.865779 118 60ft 0kts
05-Jan-20 17:58 33.673776 -117.865779 118 60ft 0kts
05-Jan-20 17:59 33.673776 -117.865779 118 60ft 0kts
05-Jan-20 18:00 33.673776 -117.865779 118 60ft 0kts
05-Jan-20 18:01 33.673776 -117.865779 118 60ft 0kts
05-Jan-20 18:02 33.673776 -117.865779 118 60ft 0kts
05-Jan-20 18:03 33.673776 -117.865779 118 60ft 0kts
05-Jan-20 18:04 33.673776 -117.865779 118 60ft 0kts
05-Jan-20 18:05 33.673776 -117.865779 118 60ft 0kts
05-Jan-20 18:06 33.673776 -117.865779 118 60ft 0kts
05-Jan-20 18:07 33.673776 -117.865779 118 60ft 0kts
05-Jan-20 18:08 33.673776 -117.865779 118 60ft 0kts
05-Jan-20 18:09 33.673776 -117.865779 118 60ft 0kts
05-Jan-20 18:10 33.673776 -117.865779 118 60ft 0kts
05-Jan-20 18:11 33.673776 -117.865779 118 60ft 0kts
05-Jan-20 18:11 33.673776 -117.865779 118 60ft 0kts
05-Jan-20 18:13 33.673776 -117.865779 118 60ft 0kts
05-Jan-20 18:13 33.673776 -117.865779 118 60ft 0kts
05-Jan-20 18:14 33.673776 -117.865779 118 60ft 0kts
05-Jan-20 18:15 33.673776 -117.865779 118 60ft 0kts
05-Jan-20 18:16 33.673776 -117.865779 118 60ft 0kts
05-Jan-20 18:17 33.673776 -117.865779 118 60ft 0kts
05-Jan-20 18:18 33.673776 -117.865779 118 60ft 0kts
05-Jan-20 18:19 33.673776 -117.865779 118 60ft 0kts
05-Jan-20 18:20 33.673776 -117.865779 118 60ft 0kts
05-Jan-20 18:21 33.673776 -117.865779 118 60ft 0kts
05-Jan-20 18:22 33.673776 -117.865779 118 60ft 0kts
05-Jan-20 18:23 33.673776 -117.865779 118 60ft 0kts
05-Jan-20 18:24 33.673776 -117.865779 118 60ft 0kts
05-Jan-20 18:25 33.673776 -117.865779 118 60ft 0kts
05-Jan-20 18:26 33.673776 -117.865779 118 60ft 0kts
05-Jan-20 18:27 33.673776 -117.865779 118 60ft 0kts
05-Jan-20 18:28 33.673776 -117.865779 118 60ft 0kts
05-Jan-20 18:29 33.673776 -117.865779 118 60ft 0kts
05-Jan-20 18:30 33.673776 -117.865779 118 60ft 0kts
05-Jan-20 18:34 33.673776 -117.865779 118 60ft 0kts
05-Jan-20 18:35 33.673776 -117.865779 118 60ft 0kts
05-Jan-20 18:36 33.673776 -117.865779 118 60ft 0kts
05-Jan-20 18:37 33.673776 -117.865779 118 60ft 0kts
05-Jan-20 18:38 33.673776 -117.865779 118 60ft 0kts
05-Jan-20 18:39 33.673776 -117.865779 118 60ft 0kts
05-Jan-20 18:40 33.673776 -117.865779 118 60ft 0kts
05-Jan-20 18:41 33.673776 -117.865779 118 60ft 0kts
05-Jan-20 18:42 33.673776 -117.865779 118 60ft 0kts
05-Jan-20 18:43 33.673776 -117.865779 118 60ft 0kts
05-Jan-20 18:44 33.673776 -117.865779 118 60ft 0kts
05-Jan-20 18:45 33.673776 -117.865779 118 60ft 0kts
05-Jan-20 18:46 33.673776 -117.865779 118 60ft 0kts
05-Jan-20 18:47 33.673765 -117.865755 118 60ft 0kts
05-Jan-20 18:48 33.674383 -117.865953 346 60ft 12kts
05-Jan-20 18:49 33.676625 -117.864879 27 60ft 18kts
05-Jan-20 18:50 33.679339 -117.863154 29 60ft 10kts
05-Jan-20 18:51 33.679784 -117.863263 305 60ft 0kts
05-Jan-20 18:52 33.679323 -117.864676 207 60ft 45kts
05-Jan-20 18:53 33.656397 -117.879540 229 1054ft 130kts
05-Jan-20 18:54 33.674833 -117.907228 340 2640ft 116kts
05-Jan-20 18:55 33.720082 -117.926379 340 2327ft 189kts
05-Jan-20 18:56 33.771473 -117.924538 53 1960ft 165kts
05-Jan-20 18:57 33.797776 -117.880104 54 2688ft 129kts
05-Jan-20 18:58 33.816652 -117.848049 54 3909ft 130kts
05-Jan-20 18:59 33.837142 -117.813221 54 5133ft 130kts
05-Jan-20 19:00 33.855322 -117.774386 75 6019ft 150kts
05-Jan-20 19:01 33.870284 -117.707938 69 5684ft 180kts
05-Jan-20 19:02 33.887222 -117.652456 69 5302ft 169kts
05-Jan-20 19:03 33.901655 -117.604711 71 5340ft 160kts
05-Jan-20 19:04 33.915190 -117.555309 71 5350ft 160kts
05-Jan-20 19:05 33.929033 -117.504737 71 5347ft 160kts
05-Jan-20 19:06 33.944991 -117.446397 71 4548ft 166kts
05-Jan-20 19:07 33.958680 -117.396410 71 3714ft 168kts
05-Jan-20 19:08 33.974653 -117.338147 71 3206ft 141kts
05-Jan-20 19:09 34.007722 -117.334568 332 3250ft 112kts
05-Jan-20 19:10 34.050598 -117.362211 314 2741ft 123kts
05-Jan-20 19:11 34.056110 -117.419255 270 2327ft 119kts
05-Jan-20 19:12 34.054697 -117.472575 268 2806ft 121kts
05-Jan-20 19:13 34.054566 -117.507329 270 2263ft 96kts
05-Jan-20 19:14 34.054911 -117.541206 269 1640ft 97kts
05-Jan-20 19:15 34.054875 -117.575667 271 1126ft 92kts
05-Jan-20 19:16 34.054945 -117.597618 273 919ft 14kts
05-Jan-20 19:17 34.054095 -117.598117 187 916ft 0kts
05-Jan-20 19:18 34.053921 -117.598154 201 915ft 6kts
05-Jan-20 19:19 34.053043 -117.599008 93 912ft 0kts

Navigation Log

Ident Type
Flight plan parsing failed, navigation log unavailable